createdAt,value
2022-11-10T00:00:56.311Z,2.13
2022-11-10T00:03:23.844Z,2.23
2022-11-10T00:05:50.782Z,2.13
2022-11-10T00:08:17.743Z,2.30
2022-11-10T00:11:01.528Z,2.17
2022-11-10T00:13:35.218Z,2.30
2022-11-10T00:16:22.637Z,2.17
2022-11-10T00:18:49.537Z,2.53
2022-11-10T00:21:17.440Z,2.43
2022-11-10T00:23:47.436Z,2.27
2022-11-10T00:26:17.268Z,2.30
2022-11-10T00:28:44.981Z,2.20
2022-11-10T00:31:12.951Z,2.37
2022-11-10T00:33:41.996Z,2.33
2022-11-10T00:36:08.944Z,2.27
2022-11-10T00:38:35.676Z,2.23
2022-11-10T00:41:02.447Z,2.37
2022-11-10T00:43:30.209Z,2.30
2022-11-10T00:45:57.343Z,2.03
2022-11-10T00:48:24.491Z,2.10
2022-11-10T00:50:51.828Z,2.20
2022-11-10T00:53:19.518Z,2.40
2022-11-10T00:55:46.429Z,2.20
2022-11-10T00:58:13.363Z,1.87
2022-11-10T01:00:41.475Z,2.13
2022-11-10T01:03:08.392Z,2.40
2022-11-10T01:05:38.695Z,2.20
2022-11-10T01:08:06.061Z,2.30
2022-11-10T01:10:32.904Z,2.33
2022-11-10T01:13:00.093Z,2.70
2022-11-10T01:15:28.043Z,2.40
2022-11-10T01:17:56.528Z,2.50
2022-11-10T01:20:24.547Z,2.30
2022-11-10T01:22:51.213Z,2.57
2022-11-10T01:25:18.001Z,2.03
2022-11-10T01:27:44.694Z,2.50
2022-11-10T01:30:11.825Z,2.60
2022-11-10T01:32:38.612Z,2.30
2022-11-10T01:35:05.887Z,2.33
2022-11-10T01:37:32.639Z,2.27
2022-11-10T01:39:59.430Z,2.33
2022-11-10T01:42:28.763Z,2.53
2022-11-10T01:45:23.171Z,2.43
2022-11-10T01:47:52.346Z,2.67
2022-11-10T01:50:21.448Z,2.80
2022-11-10T01:52:50.285Z,2.50
2022-11-10T01:55:17.879Z,2.73
2022-11-10T01:57:45.769Z,2.63
2022-11-10T02:00:13.303Z,2.67
2022-11-10T02:02:49.307Z,2.77
2022-11-10T02:05:16.236Z,2.77
2022-11-10T02:07:43.550Z,2.60
2022-11-10T02:10:18.881Z,2.70
2022-11-10T02:12:46.834Z,2.77
2022-11-10T02:15:17.101Z,3.00
2022-11-10T02:17:46.933Z,3.00
2022-11-10T02:20:16.800Z,2.90
2022-11-10T02:22:43.960Z,3.17
2022-11-10T02:25:13.705Z,2.50
2022-11-10T02:27:40.492Z,3.20
2022-11-10T02:30:07.880Z,3.10
2022-11-10T02:32:34.728Z,2.97
2022-11-10T02:35:02.154Z,3.30
2022-11-10T02:37:29.269Z,3.07
2022-11-10T02:39:56.024Z,3.63
2022-11-10T02:42:23.092Z,2.80
2022-11-10T02:44:51.475Z,3.60
2022-11-10T02:47:18.293Z,3.00
2022-11-10T02:49:45.363Z,3.10
2022-11-10T02:52:12.121Z,3.23
2022-11-10T02:54:38.961Z,2.77
2022-11-10T02:57:05.790Z,3.00
2022-11-10T02:59:32.996Z,3.03
2022-11-10T03:01:59.753Z,3.20
2022-11-10T03:04:26.591Z,3.10
2022-11-10T03:06:53.346Z,2.87
2022-11-10T03:09:20.472Z,3.37
2022-11-10T03:11:47.195Z,3.53
2022-11-10T03:14:13.920Z,3.60
2022-11-10T03:16:40.622Z,4.13
2022-11-10T03:19:07.374Z,3.50
2022-11-10T03:21:34.101Z,3.60
2022-11-10T03:24:00.741Z,3.40
2022-11-10T03:26:27.530Z,3.77
2022-11-10T03:28:54.221Z,4.27
2022-11-10T03:31:20.915Z,3.77
2022-11-10T03:33:47.584Z,3.50
2022-11-10T03:36:14.258Z,3.90
2022-11-10T03:38:40.946Z,3.90
2022-11-10T03:41:23.076Z,4.20
2022-11-10T03:43:50.245Z,3.93
2022-11-10T03:46:17.579Z,3.80
2022-11-10T03:48:48.787Z,3.60
2022-11-10T03:51:18.912Z,3.60
2022-11-10T03:53:45.566Z,3.67
2022-11-10T03:56:12.987Z,3.87
2022-11-10T03:58:40.426Z,3.73
2022-11-10T04:01:07.454Z,3.43
2022-11-10T04:03:34.182Z,3.50
2022-11-10T04:06:19.620Z,3.10
2022-11-10T04:09:01.620Z,3.63
2022-11-10T04:11:48.339Z,3.40
2022-11-10T04:14:33.849Z,3.07
2022-11-10T04:17:01.372Z,3.00
2022-11-10T04:19:28.378Z,3.07
2022-11-10T04:21:55.421Z,3.07
2022-11-10T04:24:22.114Z,3.60
2022-11-10T04:26:49.310Z,3.30
2022-11-10T04:29:18.919Z,3.10
2022-11-10T04:31:45.728Z,3.63
2022-11-10T04:34:14.793Z,2.97
2022-11-10T04:36:43.366Z,3.40
2022-11-10T04:39:10.686Z,4.03
2022-11-10T04:41:37.517Z,3.43
2022-11-10T04:44:05.116Z,3.50
2022-11-10T04:46:37.752Z,3.50
2022-11-10T04:49:06.259Z,3.00
2022-11-10T04:51:38.198Z,3.33
2022-11-10T04:54:06.574Z,3.20
2022-11-10T04:56:34.571Z,2.93
2022-11-10T04:59:01.518Z,3.70
2022-11-10T05:01:28.536Z,3.00
2022-11-10T05:03:55.792Z,3.23
2022-11-10T05:06:22.862Z,3.03
2022-11-10T05:08:49.594Z,3.00
2022-11-10T05:11:17.198Z,2.83
2022-11-10T05:13:45.086Z,2.77
2022-11-10T05:16:12.518Z,3.00
2022-11-10T05:18:39.217Z,2.67
2022-11-10T05:21:06.085Z,3.10
2022-11-10T05:23:39.015Z,3.50
2022-11-10T05:26:16.685Z,3.37
2022-11-10T05:28:45.461Z,3.73
2022-11-10T05:31:12.763Z,3.50
2022-11-10T05:33:40.042Z,3.80
2022-11-10T05:36:07.720Z,3.50
2022-11-10T05:38:38.849Z,3.80
2022-11-10T05:41:08.714Z,3.90
2022-11-10T05:43:36.544Z,4.37
2022-11-10T05:46:18.559Z,3.57
2022-11-10T05:49:30.375Z,3.77
2022-11-10T05:51:57.039Z,3.27
2022-11-10T05:54:23.697Z,3.50
2022-11-10T05:56:50.371Z,3.40
2022-11-10T05:59:17.125Z,3.00
2022-11-10T06:01:43.797Z,3.70
2022-11-10T06:04:10.428Z,3.73
2022-11-10T06:06:37.434Z,4.57
2022-11-10T06:09:04.217Z,4.00
2022-11-10T06:11:30.855Z,4.07
2022-11-10T06:13:57.511Z,4.07
2022-11-10T06:16:24.161Z,4.67
2022-11-10T06:18:50.777Z,4.10
2022-11-10T06:21:17.430Z,4.50
2022-11-10T06:23:44.103Z,4.93
2022-11-10T06:26:10.809Z,4.93
2022-11-10T06:28:37.470Z,4.83
2022-11-10T06:31:04.174Z,4.93
2022-11-10T06:33:30.910Z,4.80
2022-11-10T06:35:57.529Z,5.37
2022-11-10T06:38:24.168Z,5.10
2022-11-10T06:40:50.807Z,6.17
2022-11-10T06:43:17.466Z,5.60
2022-11-10T06:45:44.104Z,5.37
2022-11-10T06:48:13.766Z,6.07
2022-11-10T06:50:40.711Z,6.30
2022-11-10T06:53:07.553Z,5.80
2022-11-10T06:55:34.207Z,6.20
2022-11-10T06:58:00.923Z,5.63
2022-11-10T07:00:29.363Z,6.50
2022-11-10T07:03:07.281Z,6.83
2022-11-10T07:05:36.071Z,6.67
2022-11-10T07:08:10.936Z,6.23
2022-11-10T07:10:37.649Z,7.57
2022-11-10T07:13:05.483Z,7.10
2022-11-10T07:15:33.594Z,7.23
2022-11-10T07:18:00.817Z,7.53
2022-11-10T07:20:28.387Z,7.20
2022-11-10T07:23:00.269Z,7.13
2022-11-10T07:25:28.361Z,7.23
2022-11-10T07:27:56.773Z,9.67
2022-11-10T07:30:23.542Z,7.67
2022-11-10T07:33:01.012Z,8.67
2022-11-10T07:35:28.450Z,8.10
2022-11-10T07:38:01.586Z,8.43
2022-11-10T07:40:28.526Z,8.23
2022-11-10T07:42:55.202Z,8.93
2022-11-10T07:45:22.054Z,8.37
2022-11-10T07:47:48.746Z,8.53
2022-11-10T07:50:15.914Z,8.27
2022-11-10T07:52:42.646Z,8.57
2022-11-10T07:55:09.432Z,8.60
2022-11-10T07:57:36.116Z,9.13
2022-11-10T08:00:03.373Z,8.70
2022-11-10T08:02:30.056Z,8.23
2022-11-10T08:04:56.889Z,7.77
2022-11-10T08:07:23.608Z,7.70
2022-11-10T08:09:50.656Z,7.30
2022-11-10T08:12:17.378Z,6.40
2022-11-10T08:14:44.156Z,7.43
2022-11-10T08:17:10.894Z,7.43
2022-11-10T08:19:37.547Z,7.53
2022-11-10T08:22:04.219Z,7.90
2022-11-10T08:24:30.910Z,7.77
2022-11-10T08:26:57.568Z,7.33
2022-11-10T08:29:24.204Z,8.30
2022-11-10T08:31:51.589Z,7.47
2022-11-10T08:34:18.320Z,7.60
2022-11-10T08:36:45.029Z,7.30
2022-11-10T08:39:13.296Z,7.40
2022-11-10T08:41:44.142Z,7.53
2022-11-10T08:44:11.263Z,7.20
2022-11-10T08:46:38.353Z,7.17
2022-11-10T08:49:05.071Z,8.47
2022-11-10T08:51:36.296Z,7.53
2022-11-10T08:54:05.540Z,7.10
2022-11-10T08:56:32.248Z,7.90
2022-11-10T08:58:58.916Z,8.43
2022-11-10T09:01:25.583Z,7.43
2022-11-10T09:03:52.283Z,6.63
2022-11-10T09:06:18.948Z,7.50
2022-11-10T09:08:45.663Z,7.33
2022-11-10T09:11:12.371Z,7.57
2022-11-10T09:13:39.085Z,7.57
2022-11-10T09:16:06.615Z,7.57
2022-11-10T09:18:33.645Z,7.73
2022-11-10T09:21:02.065Z,7.90
2022-11-10T09:23:28.763Z,7.23
2022-11-10T09:25:56.444Z,7.27
2022-11-10T09:28:23.743Z,8.10
2022-11-10T09:30:52.084Z,7.87
2022-11-10T09:33:19.223Z,7.47
2022-11-10T09:35:46.126Z,7.67
2022-11-10T09:38:12.988Z,7.30
2022-11-10T09:41:05.779Z,6.90
2022-11-10T09:43:38.801Z,7.30
2022-11-10T09:46:23.501Z,7.20
2022-11-10T09:48:54.796Z,6.60
2022-11-10T09:51:24.250Z,6.67
2022-11-10T09:54:05.788Z,6.00
2022-11-10T09:56:34.923Z,6.90
2022-11-10T09:59:07.485Z,6.60
2022-11-10T10:01:47.549Z,6.77
2022-11-10T10:04:17.063Z,6.47
2022-11-10T10:07:15.469Z,5.47
2022-11-10T10:10:11.841Z,6.13
2022-11-10T10:13:04.580Z,5.50
2022-11-10T10:16:03.327Z,5.80
2022-11-10T10:18:52.829Z,5.83
2022-11-10T10:21:34.507Z,6.70
2022-11-10T10:24:13.978Z,5.73
2022-11-10T10:26:55.201Z,6.13
2022-11-10T10:29:45.325Z,6.10
2022-11-10T10:32:14.431Z,5.40
2022-11-10T10:34:43.367Z,5.57
2022-11-10T10:37:45.743Z,5.37
2022-11-10T10:40:19.063Z,5.20
2022-11-10T10:42:46.169Z,5.03
2022-11-10T10:45:18.553Z,5.30
2022-11-10T10:47:46.972Z,5.10
2022-11-10T10:50:22.899Z,5.20
2022-11-10T10:53:17.534Z,4.50
2022-11-10T10:55:52.590Z,5.10
2022-11-10T10:58:30.751Z,4.50
2022-11-10T11:01:15.870Z,4.23
2022-11-10T11:03:45.214Z,4.60
2022-11-10T11:06:14.597Z,4.07
2022-11-10T11:09:00.301Z,4.57
2022-11-10T11:11:32.038Z,4.00
2022-11-10T11:14:19.653Z,3.97
2022-11-10T11:16:56.951Z,4.33
2022-11-10T11:19:35.952Z,4.90
2022-11-10T11:22:21.127Z,4.23
2022-11-10T11:24:54.937Z,3.90
2022-11-10T11:27:39.912Z,3.97
2022-11-10T11:30:15.032Z,4.40
2022-11-10T11:33:03.568Z,4.33
2022-11-10T11:35:38.908Z,4.10
2022-11-10T11:38:12.873Z,3.80
2022-11-10T11:40:42.490Z,3.97
2022-11-10T11:43:33.404Z,4.40
2022-11-10T11:46:44.939Z,3.90
2022-11-10T11:49:46.240Z,2.93
2022-11-10T11:52:28.305Z,3.10
2022-11-10T11:55:21.882Z,3.07
2022-11-10T11:57:57.404Z,3.27
2022-11-10T12:00:24.621Z,3.30
2022-11-10T12:03:17.142Z,3.17
2022-11-10T12:06:00.349Z,2.63
2022-11-10T12:08:37.384Z,3.23
2022-11-10T12:11:33.338Z,3.00
2022-11-10T12:14:30.326Z,2.50
2022-11-10T12:17:23.589Z,2.73
2022-11-10T12:20:19.566Z,2.20
2022-11-10T12:23:22.999Z,2.60
2022-11-10T12:25:52.775Z,2.73
2022-11-10T12:28:31.568Z,3.10
2022-11-10T12:31:02.925Z,2.80
2022-11-10T12:33:56.564Z,2.23
2022-11-10T12:36:26.206Z,2.20
2022-11-10T12:39:00.198Z,2.43
2022-11-10T12:41:36.715Z,1.90
2022-11-10T12:44:22.582Z,2.20
2022-11-10T12:46:55.315Z,2.10
2022-11-10T12:49:31.044Z,2.10
2022-11-10T12:52:12.724Z,1.87
2022-11-10T12:54:41.539Z,2.00
2022-11-10T12:57:28.564Z,1.93
2022-11-10T13:00:01.677Z,1.57
2022-11-10T13:02:43.653Z,1.40
2022-11-10T13:05:37.713Z,1.03
2022-11-10T13:08:20.809Z,1.93
2022-11-10T13:11:13.960Z,1.37
2022-11-10T13:14:05.337Z,1.60
2022-11-10T13:16:38.751Z,1.73
2022-11-10T13:19:08.697Z,1.27
2022-11-10T13:21:53.575Z,1.23
2022-11-10T13:24:20.231Z,2.10
2022-11-10T13:27:00.443Z,1.50
2022-11-10T13:29:55.483Z,1.90
2022-11-10T13:32:30.998Z,1.37
2022-11-10T13:35:29.772Z,1.50
2022-11-10T13:37:59.828Z,1.43
2022-11-10T13:40:34.264Z,1.20
2022-11-10T13:43:00.909Z,1.30
2022-11-10T13:45:32.683Z,1.00
2022-11-10T13:48:11.746Z,1.37
2022-11-10T13:51:03.141Z,1.27
2022-11-10T13:54:09.895Z,1.57
2022-11-10T13:57:00.067Z,1.53
2022-11-10T13:59:30.998Z,1.30
2022-11-10T14:02:36.258Z,1.20
2022-11-10T14:05:06.351Z,1.73
2022-11-10T14:07:46.094Z,1.40
2022-11-10T14:10:25.664Z,2.17
2022-11-10T14:13:00.791Z,1.53
2022-11-10T14:15:43.970Z,1.47
2022-11-10T14:18:47.905Z,1.23
2022-11-10T14:21:41.170Z,1.53
2022-11-10T14:24:33.031Z,1.57
2022-11-10T14:27:05.602Z,1.40
2022-11-10T14:29:40.657Z,1.40
2022-11-10T14:32:18.875Z,1.30
2022-11-10T14:34:49.410Z,2.00
2022-11-10T14:37:22.975Z,1.43
2022-11-10T14:39:52.835Z,1.60
2022-11-10T14:42:24.551Z,1.67
2022-11-10T14:45:06.620Z,1.30
2022-11-10T14:47:33.376Z,1.67
2022-11-10T14:50:07.265Z,1.20
2022-11-10T14:52:39.049Z,1.30
2022-11-10T14:55:14.797Z,1.80
2022-11-10T14:57:41.606Z,1.17
2022-11-10T15:00:15.190Z,1.67
2022-11-10T15:02:42.190Z,2.00
2022-11-10T15:05:14.908Z,1.30
2022-11-10T15:07:43.328Z,1.27
2022-11-10T15:10:27.826Z,1.37
2022-11-10T15:13:19.491Z,1.30
2022-11-10T15:15:46.222Z,1.33
2022-11-10T15:18:41.982Z,1.80
2022-11-10T15:21:12.465Z,1.40
2022-11-10T15:23:43.872Z,2.03
2022-11-10T15:26:28.649Z,1.87
2022-11-10T15:28:55.672Z,1.30
2022-11-10T15:31:33.693Z,1.77
2022-11-10T15:34:02.370Z,1.67
2022-11-10T15:36:34.465Z,1.97
2022-11-10T15:39:13.903Z,1.57
2022-11-10T15:41:47.831Z,1.57
2022-11-10T15:44:24.557Z,2.40
2022-11-10T15:46:54.141Z,2.00
2022-11-10T15:49:27.145Z,1.50
2022-11-10T15:52:06.460Z,2.03
2022-11-10T15:54:35.745Z,2.33
2022-11-10T15:57:02.436Z,3.03
2022-11-10T15:59:29.613Z,2.00
2022-11-10T16:01:57.715Z,2.67
2022-11-10T16:04:27.064Z,2.47
2022-11-10T16:06:53.791Z,2.87
2022-11-10T16:09:20.565Z,2.43
2022-11-10T16:11:47.287Z,2.30
2022-11-10T16:14:16.629Z,2.47
2022-11-10T16:16:43.940Z,2.40
2022-11-10T16:19:11.791Z,2.30
2022-11-10T16:21:38.782Z,2.20
2022-11-10T16:24:05.641Z,2.60
2022-11-10T16:26:34.526Z,2.77
2022-11-10T16:29:01.600Z,2.53
2022-11-10T16:31:29.299Z,2.93
2022-11-10T16:33:55.986Z,2.57
2022-11-10T16:36:28.768Z,2.80
2022-11-10T16:38:56.044Z,2.57
2022-11-10T16:41:23.177Z,2.13
2022-11-10T16:43:50.079Z,2.20
2022-11-10T16:46:28.424Z,2.67
2022-11-10T16:48:58.461Z,2.90
2022-11-10T16:51:47.253Z,2.60
2022-11-10T16:54:15.922Z,2.80
2022-11-10T16:56:42.751Z,3.30
2022-11-10T16:59:13.703Z,3.10
2022-11-10T17:01:42.996Z,2.90
2022-11-10T17:04:12.257Z,3.80
2022-11-10T17:06:39.088Z,3.37
2022-11-10T17:09:15.481Z,2.67
2022-11-10T17:11:42.191Z,3.30
2022-11-10T17:14:11.342Z,3.60
2022-11-10T17:16:43.020Z,3.10
2022-11-10T17:19:17.607Z,3.23
2022-11-10T17:21:45.262Z,3.37
2022-11-10T17:24:14.602Z,3.10
2022-11-10T17:26:42.492Z,3.20
2022-11-10T17:29:20.923Z,3.80
2022-11-10T17:31:50.638Z,3.73
2022-11-10T17:34:17.529Z,3.50
2022-11-10T17:36:44.370Z,3.60
2022-11-10T17:39:14.479Z,4.40
2022-11-10T17:41:41.424Z,4.43
2022-11-10T17:44:14.131Z,4.13
2022-11-10T17:46:41.794Z,3.60
2022-11-10T17:49:08.745Z,5.30
2022-11-10T17:51:36.636Z,5.67
2022-11-10T17:54:06.268Z,5.17
2022-11-10T17:56:33.162Z,5.33
2022-11-10T17:59:00.006Z,5.43
2022-11-10T18:01:26.851Z,5.90
2022-11-10T18:03:53.602Z,6.40
2022-11-10T18:06:20.984Z,6.10
2022-11-10T18:08:48.069Z,6.77
2022-11-10T18:11:17.819Z,7.30
2022-11-10T18:13:45.189Z,6.47
2022-11-10T18:16:14.165Z,7.13
2022-11-10T18:18:41.260Z,7.70
2022-11-10T18:21:09.507Z,7.67
2022-11-10T18:23:36.402Z,7.17
2022-11-10T18:26:11.694Z,7.67
2022-11-10T18:28:39.825Z,7.90
2022-11-10T18:31:08.379Z,7.13
2022-11-10T18:33:36.787Z,6.93
2022-11-10T18:36:04.182Z,7.13
2022-11-10T18:41:32.098Z,7.73
2022-11-10T18:43:58.959Z,7.40
2022-11-10T18:46:25.725Z,7.20
2022-11-10T18:49:05.007Z,7.90
2022-11-10T18:51:35.499Z,7.20
2022-11-10T18:54:02.785Z,7.87
2022-11-10T18:56:29.504Z,7.37
2022-11-10T18:58:57.102Z,8.63
2022-11-10T19:01:24.708Z,7.77
2022-11-10T19:03:51.592Z,8.00
2022-11-10T19:06:18.636Z,8.33
2022-11-10T19:08:45.725Z,7.80
2022-11-10T19:11:16.122Z,8.23
2022-11-10T19:13:43.716Z,7.67
2022-11-10T19:16:15.429Z,8.50
2022-11-10T19:18:43.695Z,7.80
2022-11-10T19:21:15.807Z,8.40
2022-11-10T19:23:43.277Z,8.33
2022-11-10T19:26:17.899Z,9.07
2022-11-10T19:28:47.878Z,8.47
2022-11-10T19:31:16.817Z,8.83
2022-11-10T19:33:45.040Z,8.57
2022-11-10T19:36:14.432Z,8.93
2022-11-10T19:38:42.610Z,8.67
2022-11-10T19:41:17.989Z,8.00
2022-11-10T19:43:47.412Z,8.57
2022-11-10T19:46:17.253Z,8.77
2022-11-10T19:48:44.868Z,8.83
2022-11-10T19:51:13.539Z,8.53
2022-11-10T19:53:41.853Z,9.30
2022-11-10T19:56:15.535Z,8.60
2022-11-10T19:58:44.156Z,8.20
2022-11-10T20:01:12.411Z,8.53
2022-11-10T20:03:43.303Z,8.27
2022-11-10T20:06:12.483Z,8.70
2022-11-10T20:08:39.694Z,8.60
2022-11-10T20:11:14.744Z,9.00
2022-11-10T20:13:43.066Z,8.43
2022-11-10T20:16:12.931Z,8.20
2022-11-10T20:18:43.426Z,8.53
2022-11-10T20:21:18.043Z,8.67
2022-11-10T20:23:45.121Z,8.73
2022-11-10T20:26:15.309Z,8.13
2022-11-10T20:28:44.326Z,8.60
2022-11-10T20:31:20.649Z,8.20
2022-11-10T20:33:52.626Z,7.70
2022-11-10T20:36:24.169Z,7.93
2022-11-10T20:38:52.540Z,7.60
2022-11-10T20:41:28.891Z,8.00
2022-11-10T20:43:55.981Z,8.03
2022-11-10T20:46:48.279Z,7.80
2022-11-10T20:49:10.325Z,8.27
2022-11-10T20:51:37.544Z,8.00
2022-11-10T20:54:04.331Z,7.20
2022-11-10T20:56:31.283Z,8.07
2022-11-10T20:58:59.016Z,8.13
2022-11-10T21:01:26.175Z,8.13
2022-11-10T21:03:54.372Z,7.70
2022-11-10T21:06:21.698Z,8.47
2022-11-10T21:08:48.505Z,9.60
2022-11-10T21:11:35.141Z,10.83
2022-11-10T21:14:02.140Z,11.43
2022-11-10T21:16:29.086Z,11.40
2022-11-10T21:18:56.740Z,12.37
2022-11-10T21:21:34.224Z,11.43
2022-11-10T21:24:01.863Z,10.87
2022-11-10T21:26:28.748Z,11.57
2022-11-10T21:28:58.066Z,10.77
2022-11-10T21:31:24.977Z,10.80
2022-11-10T21:33:54.993Z,10.37
2022-11-10T21:36:21.910Z,10.33
2022-11-10T21:38:50.710Z,10.17
2022-11-10T21:41:17.542Z,10.00
2022-11-10T21:43:45.378Z,10.67
2022-11-10T21:46:13.148Z,9.90
2022-11-10T21:48:40.267Z,9.97
2022-11-10T21:51:08.962Z,9.20
2022-11-10T21:53:36.981Z,9.83
2022-11-10T21:56:08.552Z,10.00
2022-11-10T21:58:37.865Z,9.73
2022-11-10T22:01:28.357Z,9.63
2022-11-10T22:03:55.130Z,9.60
2022-11-10T22:06:22.272Z,9.60
2022-11-10T22:08:49.473Z,9.57
2022-11-10T22:11:40.045Z,9.50
2022-11-10T22:14:31.863Z,8.73
2022-11-10T22:17:18.537Z,8.77
2022-11-10T22:19:45.403Z,8.30
2022-11-10T22:22:14.195Z,8.10
2022-11-10T22:24:41.706Z,8.13
2022-11-10T22:27:08.773Z,8.10
2022-11-10T22:29:35.723Z,7.80
2022-11-10T22:32:03.637Z,7.70
2022-11-10T22:34:30.398Z,8.10
2022-11-10T22:36:59.599Z,8.03
2022-11-10T22:39:46.965Z,7.00
2022-11-10T22:42:34.183Z,7.10
2022-11-10T22:45:02.591Z,7.23
2022-11-10T22:47:49.331Z,7.23
2022-11-10T22:50:16.088Z,7.37
2022-11-10T22:52:42.987Z,7.03
2022-11-10T22:55:09.788Z,7.47
2022-11-10T22:57:36.540Z,7.40
2022-11-10T23:00:04.124Z,7.27
2022-11-10T23:02:30.801Z,6.90
2022-11-10T23:04:57.548Z,6.50
2022-11-10T23:07:24.305Z,7.10
2022-11-10T23:09:50.929Z,7.00
2022-11-10T23:12:18.252Z,6.73
2022-11-10T23:14:44.904Z,7.10
2022-11-10T23:17:11.565Z,6.70
2022-11-10T23:19:38.392Z,7.27
2022-11-10T23:22:05.009Z,6.90
2022-11-10T23:24:31.672Z,7.27
2022-11-10T23:26:58.359Z,7.47
2022-11-10T23:29:25.017Z,6.43
2022-11-10T23:31:51.722Z,6.63
2022-11-10T23:34:18.408Z,6.90
2022-11-10T23:36:45.065Z,6.90
2022-11-10T23:39:13.118Z,6.37
2022-11-10T23:41:39.738Z,6.23
2022-11-10T23:44:06.423Z,7.00
2022-11-10T23:46:33.131Z,6.57
2022-11-10T23:48:59.757Z,6.20
2022-11-10T23:51:26.468Z,6.23
2022-11-10T23:53:53.140Z,6.23
2022-11-10T23:56:19.783Z,5.60
2022-11-10T23:58:46.402Z,5.70
